sensor_id;sensor_type;location;lat;lon;timestamp;P1;durP1;ratioP1;P2;durP2;ratioP2
12232;SDS011;6179;51.748;8.728;2023-11-19T00:02:28;0.30;;;0.30;;
12232;SDS011;6179;51.748;8.728;2023-11-19T00:08:29;4.03;;;0.30;;
12232;SDS011;6179;51.748;8.728;2023-11-19T00:14:30;3.33;;;0.30;;
12232;SDS011;6179;51.748;8.728;2023-11-19T00:20:32;0.30;;;0.30;;
12232;SDS011;6179;51.748;8.728;2023-11-19T00:26:33;0.33;;;0.20;;
12232;SDS011;6179;51.748;8.728;2023-11-19T00:32:34;0.30;;;0.20;;
12232;SDS011;6179;51.748;8.728;2023-11-19T00:38:36;0.30;;;0.20;;
12232;SDS011;6179;51.748;8.728;2023-11-19T00:44:37;0.20;;;0.20;;
12232;SDS011;6179;51.748;8.728;2023-11-19T00:50:38;0.20;;;0.20;;
12232;SDS011;6179;51.748;8.728;2023-11-19T00:56:44;0.30;;;0.20;;
12232;SDS011;6179;51.748;8.728;2023-11-19T01:02:45;0.20;;;0.20;;
12232;SDS011;6179;51.748;8.728;2023-11-19T01:08:47;0.20;;;0.20;;
12232;SDS011;6179;51.748;8.728;2023-11-19T01:14:48;0.37;;;0.30;;
12232;SDS011;6179;51.748;8.728;2023-11-19T01:20:49;11.90;;;1.87;;
12232;SDS011;6179;51.748;8.728;2023-11-19T01:26:51;6.30;;;3.73;;
12232;SDS011;6179;51.748;8.728;2023-11-19T01:32:53;1.70;;;1.60;;
12232;SDS011;6179;51.748;8.728;2023-11-19T01:38:55;0.70;;;0.53;;
12232;SDS011;6179;51.748;8.728;2023-11-19T01:44:57;2.70;;;1.00;;
12232;SDS011;6179;51.748;8.728;2023-11-19T01:50:59;0.83;;;0.57;;
12232;SDS011;6179;51.748;8.728;2023-11-19T01:57:02;1.30;;;0.40;;
12232;SDS011;6179;51.748;8.728;2023-11-19T02:03:05;0.20;;;0.20;;
12232;SDS011;6179;51.748;8.728;2023-11-19T02:09:09;0.30;;;0.30;;
12232;SDS011;6179;51.748;8.728;2023-11-19T02:15:10;0.30;;;0.30;;
12232;SDS011;6179;51.748;8.728;2023-11-19T02:21:11;0.30;;;0.30;;
12232;SDS011;6179;51.748;8.728;2023-11-19T02:27:16;1.50;;;0.30;;
12232;SDS011;6179;51.748;8.728;2023-11-19T02:33:39;1.33;;;0.50;;
12232;SDS011;6179;51.748;8.728;2023-11-19T02:39:40;0.30;;;0.30;;
12232;SDS011;6179;51.748;8.728;2023-11-19T02:45:41;1.60;;;0.50;;
12232;SDS011;6179;51.748;8.728;2023-11-19T02:51:45;2.77;;;0.40;;
12232;SDS011;6179;51.748;8.728;2023-11-19T02:57:46;0.73;;;0.50;;
12232;SDS011;6179;51.748;8.728;2023-11-19T03:03:49;0.40;;;0.40;;
12232;SDS011;6179;51.748;8.728;2023-11-19T03:09:54;0.40;;;0.40;;
12232;SDS011;6179;51.748;8.728;2023-11-19T03:15:55;0.30;;;0.30;;
12232;SDS011;6179;51.748;8.728;2023-11-19T03:21:56;0.83;;;0.40;;
12232;SDS011;6179;51.748;8.728;2023-11-19T03:27:56;2.10;;;0.50;;
12232;SDS011;6179;51.748;8.728;2023-11-19T03:33:58;1.33;;;0.43;;
12232;SDS011;6179;51.748;8.728;2023-11-19T03:39:59;0.67;;;0.40;;
12232;SDS011;6179;51.748;8.728;2023-11-19T03:46:00;0.40;;;0.40;;
12232;SDS011;6179;51.748;8.728;2023-11-19T03:52:01;0.40;;;0.40;;
12232;SDS011;6179;51.748;8.728;2023-11-19T03:58:02;0.30;;;0.30;;
12232;SDS011;6179;51.748;8.728;2023-11-19T04:04:02;0.40;;;0.40;;
12232;SDS011;6179;51.748;8.728;2023-11-19T04:10:04;6.90;;;0.50;;
12232;SDS011;6179;51.748;8.728;2023-11-19T04:16:05;4.63;;;0.50;;
12232;SDS011;6179;51.748;8.728;2023-11-19T04:22:07;4.60;;;0.67;;
12232;SDS011;6179;51.748;8.728;2023-11-19T04:28:09;0.83;;;0.60;;
12232;SDS011;6179;51.748;8.728;2023-11-19T04:34:09;0.53;;;0.33;;
12232;SDS011;6179;51.748;8.728;2023-11-19T04:40:11;3.67;;;0.40;;
12232;SDS011;6179;51.748;8.728;2023-11-19T04:46:12;0.60;;;0.40;;
12232;SDS011;6179;51.748;8.728;2023-11-19T04:52:13;3.07;;;0.50;;
12232;SDS011;6179;51.748;8.728;2023-11-19T04:58:13;4.77;;;0.70;;
12232;SDS011;6179;51.748;8.728;2023-11-19T05:04:14;4.03;;;0.70;;
12232;SDS011;6179;51.748;8.728;2023-11-19T05:10:15;15.17;;;0.60;;
12232;SDS011;6179;51.748;8.728;2023-11-19T05:16:16;2.93;;;0.50;;
12232;SDS011;6179;51.748;8.728;2023-11-19T05:22:17;4.30;;;0.97;;
12232;SDS011;6179;51.748;8.728;2023-11-19T05:28:18;7.40;;;1.07;;
12232;SDS011;6179;51.748;8.728;2023-11-19T05:34:19;2.33;;;0.93;;
12232;SDS011;6179;51.748;8.728;2023-11-19T05:40:19;2.03;;;0.60;;
12232;SDS011;6179;51.748;8.728;2023-11-19T05:46:20;21.60;;;1.20;;
12232;SDS011;6179;51.748;8.728;2023-11-19T05:52:21;3.33;;;1.33;;
12232;SDS011;6179;51.748;8.728;2023-11-19T05:58:24;13.03;;;1.43;;
12232;SDS011;6179;51.748;8.728;2023-11-19T06:04:29;15.20;;;1.30;;
12232;SDS011;6179;51.748;8.728;2023-11-19T06:10:29;15.03;;;1.23;;
12232;SDS011;6179;51.748;8.728;2023-11-19T06:16:33;14.03;;;1.20;;
12232;SDS011;6179;51.748;8.728;2023-11-19T06:22:34;10.73;;;1.27;;
12232;SDS011;6179;51.748;8.728;2023-11-19T06:28:35;16.83;;;1.27;;
12232;SDS011;6179;51.748;8.728;2023-11-19T06:34:36;24.37;;;1.47;;
12232;SDS011;6179;51.748;8.728;2023-11-19T06:40:37;9.20;;;1.80;;
12232;SDS011;6179;51.748;8.728;2023-11-19T06:46:38;16.93;;;1.87;;
12232;SDS011;6179;51.748;8.728;2023-11-19T06:52:39;6.90;;;1.20;;
12232;SDS011;6179;51.748;8.728;2023-11-19T06:58:40;14.97;;;1.87;;
12232;SDS011;6179;51.748;8.728;2023-11-19T07:04:40;23.63;;;1.93;;
12232;SDS011;6179;51.748;8.728;2023-11-19T07:10:42;15.63;;;2.53;;
12232;SDS011;6179;51.748;8.728;2023-11-19T07:16:43;10.37;;;2.87;;
12232;SDS011;6179;51.748;8.728;2023-11-19T07:22:44;13.47;;;2.43;;
12232;SDS011;6179;51.748;8.728;2023-11-19T07:28:51;14.63;;;2.40;;
12232;SDS011;6179;51.748;8.728;2023-11-19T07:34:52;27.47;;;2.37;;
12232;SDS011;6179;51.748;8.728;2023-11-19T07:40:53;8.97;;;1.80;;
12232;SDS011;6179;51.748;8.728;2023-11-19T07:46:54;17.07;;;2.07;;
12232;SDS011;6179;51.748;8.728;2023-11-19T07:52:55;15.10;;;1.33;;
12232;SDS011;6179;51.748;8.728;2023-11-19T07:58:55;16.40;;;2.40;;
12232;SDS011;6179;51.748;8.728;2023-11-19T08:04:56;13.83;;;1.50;;
12232;SDS011;6179;51.748;8.728;2023-11-19T08:10:57;18.70;;;1.90;;
12232;SDS011;6179;51.748;8.728;2023-11-19T08:16:57;13.30;;;4.43;;
12232;SDS011;6179;51.748;8.728;2023-11-19T08:22:58;6.87;;;1.80;;
12232;SDS011;6179;51.748;8.728;2023-11-19T08:28:59;8.93;;;2.23;;
12232;SDS011;6179;51.748;8.728;2023-11-19T08:35:00;25.23;;;2.70;;
12232;SDS011;6179;51.748;8.728;2023-11-19T08:41:01;18.47;;;3.20;;
12232;SDS011;6179;51.748;8.728;2023-11-19T08:47:01;15.93;;;2.00;;
12232;SDS011;6179;51.748;8.728;2023-11-19T08:53:02;15.23;;;2.03;;
12232;SDS011;6179;51.748;8.728;2023-11-19T08:59:06;9.43;;;1.97;;
12232;SDS011;6179;51.748;8.728;2023-11-19T09:05:07;26.87;;;2.50;;
12232;SDS011;6179;51.748;8.728;2023-11-19T09:11:08;11.80;;;2.10;;
12232;SDS011;6179;51.748;8.728;2023-11-19T09:17:09;12.20;;;1.90;;
12232;SDS011;6179;51.748;8.728;2023-11-19T09:23:10;14.23;;;1.63;;
12232;SDS011;6179;51.748;8.728;2023-11-19T09:29:12;11.10;;;1.37;;
12232;SDS011;6179;51.748;8.728;2023-11-19T09:35:14;17.17;;;2.57;;
12232;SDS011;6179;51.748;8.728;2023-11-19T09:41:16;12.47;;;1.90;;
12232;SDS011;6179;51.748;8.728;2023-11-19T09:47:19;29.07;;;2.77;;
12232;SDS011;6179;51.748;8.728;2023-11-19T09:53:21;18.80;;;2.23;;
12232;SDS011;6179;51.748;8.728;2023-11-19T09:59:21;20.40;;;1.80;;
12232;SDS011;6179;51.748;8.728;2023-11-19T10:05:22;18.50;;;1.87;;
12232;SDS011;6179;51.748;8.728;2023-11-19T10:11:25;9.40;;;1.50;;
12232;SDS011;6179;51.748;8.728;2023-11-19T10:17:30;12.70;;;1.83;;
12232;SDS011;6179;51.748;8.728;2023-11-19T10:23:50;13.03;;;1.63;;
12232;SDS011;6179;51.748;8.728;2023-11-19T10:29:52;18.20;;;2.60;;
12232;SDS011;6179;51.748;8.728;2023-11-19T10:35:54;15.90;;;2.70;;
12232;SDS011;6179;51.748;8.728;2023-11-19T10:41:56;10.57;;;3.50;;
12232;SDS011;6179;51.748;8.728;2023-11-19T10:47:57;11.03;;;2.67;;
12232;SDS011;6179;51.748;8.728;2023-11-19T10:54:02;15.60;;;1.33;;
12232;SDS011;6179;51.748;8.728;2023-11-19T11:00:05;19.60;;;2.03;;
12232;SDS011;6179;51.748;8.728;2023-11-19T11:06:12;12.30;;;2.40;;
12232;SDS011;6179;51.748;8.728;2023-11-19T11:12:13;15.53;;;1.43;;
12232;SDS011;6179;51.748;8.728;2023-11-19T11:18:17;23.83;;;2.07;;
12232;SDS011;6179;51.748;8.728;2023-11-19T11:30:39;7.17;;;1.47;;
12232;SDS011;6179;51.748;8.728;2023-11-19T11:37:06;25.70;;;1.90;;
12232;SDS011;6179;51.748;8.728;2023-11-19T11:43:47;19.33;;;3.97;;
12232;SDS011;6179;51.748;8.728;2023-11-19T11:49:52;4.57;;;1.00;;
12232;SDS011;6179;51.748;8.728;2023-11-19T11:55:54;19.23;;;1.77;;
12232;SDS011;6179;51.748;8.728;2023-11-19T12:02:00;12.23;;;2.10;;
12232;SDS011;6179;51.748;8.728;2023-11-19T12:08:04;14.50;;;2.00;;
12232;SDS011;6179;51.748;8.728;2023-11-19T12:14:07;11.23;;;1.43;;
12232;SDS011;6179;51.748;8.728;2023-11-19T12:20:08;13.20;;;1.90;;
12232;SDS011;6179;51.748;8.728;2023-11-19T12:26:09;8.57;;;2.67;;
12232;SDS011;6179;51.748;8.728;2023-11-19T12:32:38;24.43;;;1.40;;
12232;SDS011;6179;51.748;8.728;2023-11-19T12:38:40;15.73;;;1.17;;
12232;SDS011;6179;51.748;8.728;2023-11-19T12:44:53;9.17;;;1.73;;
12232;SDS011;6179;51.748;8.728;2023-11-19T12:50:57;16.87;;;3.03;;
12232;SDS011;6179;51.748;8.728;2023-11-19T12:56:59;20.60;;;1.57;;
12232;SDS011;6179;51.748;8.728;2023-11-19T13:03:00;15.03;;;2.00;;
12232;SDS011;6179;51.748;8.728;2023-11-19T13:09:01;10.83;;;1.93;;
12232;SDS011;6179;51.748;8.728;2023-11-19T13:15:02;31.93;;;2.07;;
12232;SDS011;6179;51.748;8.728;2023-11-19T13:21:03;13.60;;;1.73;;
12232;SDS011;6179;51.748;8.728;2023-11-19T13:27:04;9.67;;;2.57;;
12232;SDS011;6179;51.748;8.728;2023-11-19T13:33:05;22.20;;;1.97;;
12232;SDS011;6179;51.748;8.728;2023-11-19T13:39:06;10.17;;;1.53;;
12232;SDS011;6179;51.748;8.728;2023-11-19T13:45:08;13.10;;;1.20;;
12232;SDS011;6179;51.748;8.728;2023-11-19T13:51:13;21.17;;;1.10;;
12232;SDS011;6179;51.748;8.728;2023-11-19T13:57:14;12.00;;;2.03;;
12232;SDS011;6179;51.748;8.728;2023-11-19T14:03:14;9.67;;;1.53;;
12232;SDS011;6179;51.748;8.728;2023-11-19T14:09:15;8.13;;;1.27;;
12232;SDS011;6179;51.748;8.728;2023-11-19T14:15:16;15.50;;;1.47;;
12232;SDS011;6179;51.748;8.728;2023-11-19T14:21:17;11.43;;;2.00;;
12232;SDS011;6179;51.748;8.728;2023-11-19T14:27:18;13.97;;;1.33;;
12232;SDS011;6179;51.748;8.728;2023-11-19T14:33:18;12.80;;;1.50;;
12232;SDS011;6179;51.748;8.728;2023-11-19T14:39:19;22.10;;;1.67;;
12232;SDS011;6179;51.748;8.728;2023-11-19T14:45:20;8.00;;;1.50;;
12232;SDS011;6179;51.748;8.728;2023-11-19T14:51:21;6.40;;;1.77;;
12232;SDS011;6179;51.748;8.728;2023-11-19T14:57:22;8.73;;;1.00;;
12232;SDS011;6179;51.748;8.728;2023-11-19T15:03:23;6.13;;;1.27;;
12232;SDS011;6179;51.748;8.728;2023-11-19T15:09:24;6.03;;;0.87;;
12232;SDS011;6179;51.748;8.728;2023-11-19T15:15:25;7.70;;;1.13;;
12232;SDS011;6179;51.748;8.728;2023-11-19T15:21:26;18.33;;;2.53;;
12232;SDS011;6179;51.748;8.728;2023-11-19T15:27:29;9.13;;;1.60;;
12232;SDS011;6179;51.748;8.728;2023-11-19T15:33:29;5.93;;;1.40;;
12232;SDS011;6179;51.748;8.728;2023-11-19T15:39:30;11.70;;;2.13;;
12232;SDS011;6179;51.748;8.728;2023-11-19T15:45:32;6.33;;;1.07;;
12232;SDS011;6179;51.748;8.728;2023-11-19T15:51:39;12.30;;;1.97;;
12232;SDS011;6179;51.748;8.728;2023-11-19T15:57:40;7.37;;;1.20;;
12232;SDS011;6179;51.748;8.728;2023-11-19T16:03:41;8.87;;;1.83;;
12232;SDS011;6179;51.748;8.728;2023-11-19T16:09:43;12.83;;;1.90;;
12232;SDS011;6179;51.748;8.728;2023-11-19T16:15:43;8.57;;;1.17;;
12232;SDS011;6179;51.748;8.728;2023-11-19T16:21:44;11.00;;;1.00;;
12232;SDS011;6179;51.748;8.728;2023-11-19T16:27:45;3.37;;;1.10;;
12232;SDS011;6179;51.748;8.728;2023-11-19T16:33:46;2.90;;;0.70;;
12232;SDS011;6179;51.748;8.728;2023-11-19T16:39:46;7.60;;;1.03;;
12232;SDS011;6179;51.748;8.728;2023-11-19T16:45:47;9.60;;;1.07;;
12232;SDS011;6179;51.748;8.728;2023-11-19T16:51:48;16.43;;;1.20;;
12232;SDS011;6179;51.748;8.728;2023-11-19T16:57:49;11.03;;;0.70;;
12232;SDS011;6179;51.748;8.728;2023-11-19T17:03:50;4.00;;;1.10;;
12232;SDS011;6179;51.748;8.728;2023-11-19T17:09:51;24.20;;;1.30;;
12232;SDS011;6179;51.748;8.728;2023-11-19T17:15:52;18.53;;;1.37;;
12232;SDS011;6179;51.748;8.728;2023-11-19T17:21:53;14.40;;;2.17;;
12232;SDS011;6179;51.748;8.728;2023-11-19T17:27:54;4.13;;;0.80;;
12232;SDS011;6179;51.748;8.728;2023-11-19T17:33:54;11.93;;;1.10;;
12232;SDS011;6179;51.748;8.728;2023-11-19T17:39:55;12.80;;;1.40;;
12232;SDS011;6179;51.748;8.728;2023-11-19T17:45:56;13.07;;;1.00;;
12232;SDS011;6179;51.748;8.728;2023-11-19T17:52:00;13.50;;;1.30;;
12232;SDS011;6179;51.748;8.728;2023-11-19T17:58:01;12.20;;;1.30;;
12232;SDS011;6179;51.748;8.728;2023-11-19T18:04:04;12.03;;;1.40;;
12232;SDS011;6179;51.748;8.728;2023-11-19T18:10:05;9.73;;;1.20;;
12232;SDS011;6179;51.748;8.728;2023-11-19T18:16:08;4.40;;;0.70;;
12232;SDS011;6179;51.748;8.728;2023-11-19T18:22:13;4.77;;;0.90;;
12232;SDS011;6179;51.748;8.728;2023-11-19T18:28:13;9.17;;;2.00;;
12232;SDS011;6179;51.748;8.728;2023-11-19T18:34:16;12.60;;;2.73;;
12232;SDS011;6179;51.748;8.728;2023-11-19T18:40:17;3.40;;;0.90;;
12232;SDS011;6179;51.748;8.728;2023-11-19T18:46:21;10.33;;;1.90;;
12232;SDS011;6179;51.748;8.728;2023-11-19T18:52:25;21.63;;;1.70;;
12232;SDS011;6179;51.748;8.728;2023-11-19T18:58:25;20.43;;;2.80;;
12232;SDS011;6179;51.748;8.728;2023-11-19T19:04:26;10.10;;;1.23;;
12232;SDS011;6179;51.748;8.728;2023-11-19T19:10:28;9.27;;;1.40;;
12232;SDS011;6179;51.748;8.728;2023-11-19T19:16:29;7.90;;;1.80;;
12232;SDS011;6179;51.748;8.728;2023-11-19T19:22:30;8.77;;;1.50;;
12232;SDS011;6179;51.748;8.728;2023-11-19T19:28:31;12.73;;;1.90;;
12232;SDS011;6179;51.748;8.728;2023-11-19T19:34:37;11.00;;;1.37;;
12232;SDS011;6179;51.748;8.728;2023-11-19T19:40:38;8.47;;;1.17;;
12232;SDS011;6179;51.748;8.728;2023-11-19T19:46:39;6.77;;;1.70;;
12232;SDS011;6179;51.748;8.728;2023-11-19T19:52:41;9.50;;;1.63;;
12232;SDS011;6179;51.748;8.728;2023-11-19T19:58:43;1.20;;;0.70;;
12232;SDS011;6179;51.748;8.728;2023-11-19T20:04:44;24.40;;;1.20;;
12232;SDS011;6179;51.748;8.728;2023-11-19T20:10:47;18.47;;;1.30;;
12232;SDS011;6179;51.748;8.728;2023-11-19T20:16:48;5.60;;;1.20;;
12232;SDS011;6179;51.748;8.728;2023-11-19T20:22:51;6.30;;;1.47;;
12232;SDS011;6179;51.748;8.728;2023-11-19T20:28:52;7.27;;;1.30;;
12232;SDS011;6179;51.748;8.728;2023-11-19T20:34:53;5.70;;;1.33;;
12232;SDS011;6179;51.748;8.728;2023-11-19T20:40:54;2.27;;;0.77;;
12232;SDS011;6179;51.748;8.728;2023-11-19T20:46:56;9.83;;;1.50;;
12232;SDS011;6179;51.748;8.728;2023-11-19T20:52:57;11.00;;;0.70;;
12232;SDS011;6179;51.748;8.728;2023-11-19T20:58:59;6.03;;;1.17;;
12232;SDS011;6179;51.748;8.728;2023-11-19T21:05:00;11.17;;;0.90;;
12232;SDS011;6179;51.748;8.728;2023-11-19T21:11:01;4.77;;;0.70;;
12232;SDS011;6179;51.748;8.728;2023-11-19T21:17:03;5.40;;;0.60;;
12232;SDS011;6179;51.748;8.728;2023-11-19T21:23:05;3.30;;;0.80;;
12232;SDS011;6179;51.748;8.728;2023-11-19T21:29:07;7.37;;;1.00;;
12232;SDS011;6179;51.748;8.728;2023-11-19T21:35:11;3.70;;;0.40;;
12232;SDS011;6179;51.748;8.728;2023-11-19T21:41:13;1.77;;;0.80;;
12232;SDS011;6179;51.748;8.728;2023-11-19T21:47:14;1.90;;;0.70;;
12232;SDS011;6179;51.748;8.728;2023-11-19T21:53:15;3.43;;;0.63;;
12232;SDS011;6179;51.748;8.728;2023-11-19T21:59:17;3.20;;;0.60;;
12232;SDS011;6179;51.748;8.728;2023-11-19T22:05:18;6.73;;;0.50;;
12232;SDS011;6179;51.748;8.728;2023-11-19T22:11:19;1.20;;;0.50;;
12232;SDS011;6179;51.748;8.728;2023-11-19T22:17:23;4.30;;;0.70;;
12232;SDS011;6179;51.748;8.728;2023-11-19T22:23:25;8.87;;;0.80;;
12232;SDS011;6179;51.748;8.728;2023-11-19T22:29:26;3.17;;;0.60;;
12232;SDS011;6179;51.748;8.728;2023-11-19T22:35:27;7.83;;;0.97;;
12232;SDS011;6179;51.748;8.728;2023-11-19T22:41:28;3.20;;;0.53;;
12232;SDS011;6179;51.748;8.728;2023-11-19T22:47:29;3.40;;;0.67;;
12232;SDS011;6179;51.748;8.728;2023-11-19T22:53:32;1.50;;;0.40;;
12232;SDS011;6179;51.748;8.728;2023-11-19T22:59:33;2.60;;;0.37;;
12232;SDS011;6179;51.748;8.728;2023-11-19T23:05:34;1.80;;;0.47;;
12232;SDS011;6179;51.748;8.728;2023-11-19T23:11:36;3.67;;;0.60;;
12232;SDS011;6179;51.748;8.728;2023-11-19T23:17:37;1.70;;;0.70;;
12232;SDS011;6179;51.748;8.728;2023-11-19T23:23:38;10.77;;;0.73;;
12232;SDS011;6179;51.748;8.728;2023-11-19T23:29:39;1.60;;;0.50;;
12232;SDS011;6179;51.748;8.728;2023-11-19T23:35:40;1.03;;;0.40;;
12232;SDS011;6179;51.748;8.728;2023-11-19T23:41:42;0.77;;;0.77;;
12232;SDS011;6179;51.748;8.728;2023-11-19T23:47:43;2.50;;;0.93;;
12232;SDS011;6179;51.748;8.728;2023-11-19T23:53:44;0.60;;;0.40;;
12232;SDS011;6179;51.748;8.728;2023-11-19T23:59:45;5.20;;;1.77;;
